sensor_id;sensor_type;location;lat;lon;timestamp;temperature;humidity
9984;DHT22;16737;50.932;6.780;2023-08-01T00:02:02;20.70;99.90
9984;DHT22;16737;50.932;6.780;2023-08-01T00:04:29;20.70;99.90
9984;DHT22;16737;50.932;6.780;2023-08-01T00:06:56;20.70;99.90
9984;DHT22;16737;50.932;6.780;2023-08-01T00:09:24;20.70;99.90
9984;DHT22;16737;50.932;6.780;2023-08-01T00:11:51;20.70;99.90
9984;DHT22;16737;50.932;6.780;2023-08-01T00:14:21;20.70;99.90
9984;DHT22;16737;50.932;6.780;2023-08-01T00:16:49;20.70;99.90
9984;DHT22;16737;50.932;6.780;2023-08-01T00:19:16;20.70;99.90
9984;DHT22;16737;50.932;6.780;2023-08-01T00:21:44;20.70;99.90
9984;DHT22;16737;50.932;6.780;2023-08-01T00:24:11;20.70;99.90
9984;DHT22;16737;50.932;6.780;2023-08-01T00:26:39;20.70;99.90
9984;DHT22;16737;50.932;6.780;2023-08-01T00:29:06;20.70;99.90
9984;DHT22;16737;50.932;6.780;2023-08-01T00:31:33;20.70;99.90
9984;DHT22;16737;50.932;6.780;2023-08-01T00:34:00;20.80;99.90
9984;DHT22;16737;50.932;6.780;2023-08-01T00:36:27;20.80;99.90
9984;DHT22;16737;50.932;6.780;2023-08-01T00:38:54;20.80;99.90
9984;DHT22;16737;50.932;6.780;2023-08-01T00:41:21;20.80;99.90
9984;DHT22;16737;50.932;6.780;2023-08-01T00:43:49;20.80;99.90
9984;DHT22;16737;50.932;6.780;2023-08-01T00:46:16;20.80;99.90
9984;DHT22;16737;50.932;6.780;2023-08-01T00:48:44;20.90;99.90
9984;DHT22;16737;50.932;6.780;2023-08-01T00:51:11;20.90;99.90
9984;DHT22;16737;50.932;6.780;2023-08-01T00:53:39;20.80;99.90
9984;DHT22;16737;50.932;6.780;2023-08-01T00:56:07;20.90;99.90
9984;DHT22;16737;50.932;6.780;2023-08-01T00:58:33;20.90;99.90
9984;DHT22;16737;50.932;6.780;2023-08-01T01:01:02;20.90;99.90
9984;DHT22;16737;50.932;6.780;2023-08-01T01:03:29;20.90;99.90
9984;DHT22;16737;50.932;6.780;2023-08-01T01:06:02;20.90;99.90
9984;DHT22;16737;50.932;6.780;2023-08-01T01:08:36;20.90;99.90
9984;DHT22;16737;50.932;6.780;2023-08-01T01:11:02;20.90;99.90
9984;DHT22;16737;50.932;6.780;2023-08-01T01:13:30;20.90;99.90
9984;DHT22;16737;50.932;6.780;2023-08-01T01:15:57;20.90;99.90
9984;DHT22;16737;50.932;6.780;2023-08-01T01:18:25;20.90;99.90
9984;DHT22;16737;50.932;6.780;2023-08-01T01:20:53;20.90;99.90
9984;DHT22;16737;50.932;6.780;2023-08-01T01:23:21;20.80;99.90
9984;DHT22;16737;50.932;6.780;2023-08-01T01:25:49;20.80;99.90
9984;DHT22;16737;50.932;6.780;2023-08-01T01:28:18;20.80;99.90
9984;DHT22;16737;50.932;6.780;2023-08-01T01:30:48;20.80;99.90
9984;DHT22;16737;50.932;6.780;2023-08-01T01:33:16;20.80;99.90
9984;DHT22;16737;50.932;6.780;2023-08-01T01:35:44;20.80;99.90
9984;DHT22;16737;50.932;6.780;2023-08-01T01:38:13;20.70;99.90
9984;DHT22;16737;50.932;6.780;2023-08-01T01:40:40;20.70;99.90
9984;DHT22;16737;50.932;6.780;2023-08-01T01:43:06;20.70;99.90
9984;DHT22;16737;50.932;6.780;2023-08-01T01:45:33;20.70;99.90
9984;DHT22;16737;50.932;6.780;2023-08-01T01:48:00;20.60;99.90
9984;DHT22;16737;50.932;6.780;2023-08-01T01:50:27;20.60;99.90
9984;DHT22;16737;50.932;6.780;2023-08-01T01:52:54;20.60;99.90
9984;DHT22;16737;50.932;6.780;2023-08-01T01:55:22;20.60;99.90
9984;DHT22;16737;50.932;6.780;2023-08-01T01:57:49;20.60;99.90
9984;DHT22;16737;50.932;6.780;2023-08-01T02:00:16;20.50;99.90
9984;DHT22;16737;50.932;6.780;2023-08-01T02:02:43;20.50;99.90
9984;DHT22;16737;50.932;6.780;2023-08-01T02:05:10;20.50;99.90
9984;DHT22;16737;50.932;6.780;2023-08-01T02:07:37;20.50;99.90
9984;DHT22;16737;50.932;6.780;2023-08-01T02:10:04;20.40;99.90
9984;DHT22;16737;50.932;6.780;2023-08-01T02:12:33;20.40;99.90
9984;DHT22;16737;50.932;6.780;2023-08-01T02:15:01;20.40;99.90
9984;DHT22;16737;50.932;6.780;2023-08-01T02:17:28;20.40;99.90
9984;DHT22;16737;50.932;6.780;2023-08-01T02:19:55;20.40;99.90
9984;DHT22;16737;50.932;6.780;2023-08-01T02:22:24;20.40;99.90
9984;DHT22;16737;50.932;6.780;2023-08-01T02:24:51;20.40;99.90
9984;DHT22;16737;50.932;6.780;2023-08-01T02:27:18;20.40;99.90
9984;DHT22;16737;50.932;6.780;2023-08-01T02:29:46;20.30;99.90
9984;DHT22;16737;50.932;6.780;2023-08-01T02:32:15;20.30;99.90
9984;DHT22;16737;50.932;6.780;2023-08-01T02:34:42;20.20;99.90
9984;DHT22;16737;50.932;6.780;2023-08-01T02:37:09;20.20;99.90
9984;DHT22;16737;50.932;6.780;2023-08-01T02:39:36;20.20;99.90
9984;DHT22;16737;50.932;6.780;2023-08-01T02:42:03;20.20;99.90
9984;DHT22;16737;50.932;6.780;2023-08-01T02:44:30;20.10;99.90
9984;DHT22;16737;50.932;6.780;2023-08-01T02:46:58;20.10;99.90
9984;DHT22;16737;50.932;6.780;2023-08-01T02:49:25;20.10;99.90
9984;DHT22;16737;50.932;6.780;2023-08-01T02:51:52;20.10;99.90
9984;DHT22;16737;50.932;6.780;2023-08-01T02:54:19;20.00;99.90
9984;DHT22;16737;50.932;6.780;2023-08-01T02:56:46;20.00;99.90
9984;DHT22;16737;50.932;6.780;2023-08-01T02:59:13;20.00;99.90
9984;DHT22;16737;50.932;6.780;2023-08-01T03:01:40;19.90;99.90
9984;DHT22;16737;50.932;6.780;2023-08-01T03:04:08;19.90;99.90
9984;DHT22;16737;50.932;6.780;2023-08-01T03:06:37;19.90;99.90
9984;DHT22;16737;50.932;6.780;2023-08-01T03:09:04;19.90;99.90
9984;DHT22;16737;50.932;6.780;2023-08-01T03:11:33;19.90;99.90
9984;DHT22;16737;50.932;6.780;2023-08-01T03:14:01;19.80;99.90
9984;DHT22;16737;50.932;6.780;2023-08-01T03:16:29;19.80;99.90
9984;DHT22;16737;50.932;6.780;2023-08-01T03:18:57;19.80;99.90
9984;DHT22;16737;50.932;6.780;2023-08-01T03:21:27;19.80;99.90
9984;DHT22;16737;50.932;6.780;2023-08-01T03:23:54;19.70;99.90
9984;DHT22;16737;50.932;6.780;2023-08-01T03:26:21;19.70;99.90
9984;DHT22;16737;50.932;6.780;2023-08-01T03:28:48;19.70;99.90
9984;DHT22;16737;50.932;6.780;2023-08-01T03:31:15;19.70;99.90
9984;DHT22;16737;50.932;6.780;2023-08-01T03:33:41;19.70;99.90
9984;DHT22;16737;50.932;6.780;2023-08-01T03:36:08;19.70;99.90
9984;DHT22;16737;50.932;6.780;2023-08-01T03:38:37;19.60;99.90
9984;DHT22;16737;50.932;6.780;2023-08-01T03:41:04;19.60;99.90
9984;DHT22;16737;50.932;6.780;2023-08-01T03:43:31;19.60;99.90
9984;DHT22;16737;50.932;6.780;2023-08-01T03:45:58;19.60;99.90
9984;DHT22;16737;50.932;6.780;2023-08-01T03:48:25;19.60;99.90
9984;DHT22;16737;50.932;6.780;2023-08-01T03:50:52;19.60;99.90
9984;DHT22;16737;50.932;6.780;2023-08-01T03:53:19;19.50;99.90
9984;DHT22;16737;50.932;6.780;2023-08-01T03:55:48;19.50;99.90
9984;DHT22;16737;50.932;6.780;2023-08-01T03:58:15;19.50;99.90
9984;DHT22;16737;50.932;6.780;2023-08-01T04:00:42;19.50;99.90
9984;DHT22;16737;50.932;6.780;2023-08-01T04:03:08;19.40;99.90
9984;DHT22;16737;50.932;6.780;2023-08-01T04:05:35;19.40;99.90
9984;DHT22;16737;50.932;6.780;2023-08-01T04:08:03;19.40;99.90
9984;DHT22;16737;50.932;6.780;2023-08-01T04:10:30;19.40;99.90
9984;DHT22;16737;50.932;6.780;2023-08-01T04:12:58;19.30;99.90
9984;DHT22;16737;50.932;6.780;2023-08-01T04:15:25;19.30;99.90
9984;DHT22;16737;50.932;6.780;2023-08-01T04:17:52;19.30;99.90
9984;DHT22;16737;50.932;6.780;2023-08-01T04:20:19;19.30;99.90
9984;DHT22;16737;50.932;6.780;2023-08-01T04:22:46;19.20;99.90
9984;DHT22;16737;50.932;6.780;2023-08-01T04:25:13;19.20;99.90
9984;DHT22;16737;50.932;6.780;2023-08-01T04:27:40;19.20;99.90
9984;DHT22;16737;50.932;6.780;2023-08-01T04:30:09;19.10;99.90
9984;DHT22;16737;50.932;6.780;2023-08-01T04:32:37;19.20;99.90
9984;DHT22;16737;50.932;6.780;2023-08-01T04:35:04;19.10;99.90
9984;DHT22;16737;50.932;6.780;2023-08-01T04:37:32;19.10;99.90
9984;DHT22;16737;50.932;6.780;2023-08-01T04:39:59;19.10;99.90
9984;DHT22;16737;50.932;6.780;2023-08-01T04:42:26;19.10;99.90
9984;DHT22;16737;50.932;6.780;2023-08-01T04:44:54;19.10;99.90
9984;DHT22;16737;50.932;6.780;2023-08-01T04:47:23;19.10;99.90
9984;DHT22;16737;50.932;6.780;2023-08-01T04:49:50;19.00;99.90
9984;DHT22;16737;50.932;6.780;2023-08-01T04:52:17;19.00;99.90
9984;DHT22;16737;50.932;6.780;2023-08-01T04:54:44;19.00;99.90
9984;DHT22;16737;50.932;6.780;2023-08-01T04:57:11;19.00;99.90
9984;DHT22;16737;50.932;6.780;2023-08-01T04:59:38;19.00;99.90
9984;DHT22;16737;50.932;6.780;2023-08-01T05:02:05;19.00;99.90
9984;DHT22;16737;50.932;6.780;2023-08-01T05:04:33;18.90;99.90
9984;DHT22;16737;50.932;6.780;2023-08-01T05:07:00;18.90;99.90
9984;DHT22;16737;50.932;6.780;2023-08-01T05:09:27;19.00;99.90
9984;DHT22;16737;50.932;6.780;2023-08-01T05:11:54;18.90;99.90
9984;DHT22;16737;50.932;6.780;2023-08-01T05:14:21;18.90;99.90
9984;DHT22;16737;50.932;6.780;2023-08-01T05:16:48;18.90;99.90
9984;DHT22;16737;50.932;6.780;2023-08-01T05:19:15;18.90;99.90
9984;DHT22;16737;50.932;6.780;2023-08-01T05:21:43;18.90;99.90
9984;DHT22;16737;50.932;6.780;2023-08-01T05:24:11;18.90;99.90
9984;DHT22;16737;50.932;6.780;2023-08-01T05:26:38;18.90;99.90
9984;DHT22;16737;50.932;6.780;2023-08-01T05:29:05;18.90;99.90
9984;DHT22;16737;50.932;6.780;2023-08-01T05:31:32;18.80;99.90
9984;DHT22;16737;50.932;6.780;2023-08-01T05:33:59;18.90;99.90
9984;DHT22;16737;50.932;6.780;2023-08-01T05:36:26;18.90;99.90
9984;DHT22;16737;50.932;6.780;2023-08-01T05:38:56;18.90;99.90
9984;DHT22;16737;50.932;6.780;2023-08-01T05:41:23;18.90;99.90
9984;DHT22;16737;50.932;6.780;2023-08-01T05:43:50;18.90;99.90
9984;DHT22;16737;50.932;6.780;2023-08-01T05:46:17;18.90;99.90
9984;DHT22;16737;50.932;6.780;2023-08-01T05:48:44;18.90;99.90
9984;DHT22;16737;50.932;6.780;2023-08-01T05:51:11;18.90;99.90
9984;DHT22;16737;50.932;6.780;2023-08-01T05:53:38;18.90;99.90
9984;DHT22;16737;50.932;6.780;2023-08-01T05:56:06;18.90;99.90
9984;DHT22;16737;50.932;6.780;2023-08-01T05:58:33;18.90;99.90
9984;DHT22;16737;50.932;6.780;2023-08-01T06:01:00;19.00;99.90
9984;DHT22;16737;50.932;6.780;2023-08-01T06:03:27;18.90;99.90
9984;DHT22;16737;50.932;6.780;2023-08-01T06:05:56;19.00;99.90
9984;DHT22;16737;50.932;6.780;2023-08-01T06:08:23;19.00;99.90
9984;DHT22;16737;50.932;6.780;2023-08-01T06:10:50;19.00;99.90
9984;DHT22;16737;50.932;6.780;2023-08-01T06:13:19;19.00;99.90
9984;DHT22;16737;50.932;6.780;2023-08-01T06:15:46;19.00;99.90
9984;DHT22;16737;50.932;6.780;2023-08-01T06:18:14;19.00;99.90
9984;DHT22;16737;50.932;6.780;2023-08-01T06:20:41;19.00;99.90
9984;DHT22;16737;50.932;6.780;2023-08-01T06:23:08;19.10;99.90
9984;DHT22;16737;50.932;6.780;2023-08-01T06:25:35;19.10;99.90
9984;DHT22;16737;50.932;6.780;2023-08-01T06:28:02;19.10;99.90
9984;DHT22;16737;50.932;6.780;2023-08-01T06:30:30;19.10;99.90
9984;DHT22;16737;50.932;6.780;2023-08-01T06:32:57;19.10;99.90
9984;DHT22;16737;50.932;6.780;2023-08-01T06:35:24;19.20;99.90
9984;DHT22;16737;50.932;6.780;2023-08-01T06:37:51;19.20;99.90
9984;DHT22;16737;50.932;6.780;2023-08-01T06:40:18;19.30;99.90
9984;DHT22;16737;50.932;6.780;2023-08-01T06:42:45;19.30;99.90
9984;DHT22;16737;50.932;6.780;2023-08-01T06:45:12;19.30;99.90
9984;DHT22;16737;50.932;6.780;2023-08-01T06:47:40;19.30;99.90
9984;DHT22;16737;50.932;6.780;2023-08-01T06:50:08;19.40;99.90
9984;DHT22;16737;50.932;6.780;2023-08-01T06:52:35;19.40;99.90
9984;DHT22;16737;50.932;6.780;2023-08-01T06:55:03;19.40;99.90
9984;DHT22;16737;50.932;6.780;2023-08-01T06:57:30;19.40;99.90
9984;DHT22;16737;50.932;6.780;2023-08-01T06:59:57;19.50;99.90
9984;DHT22;16737;50.932;6.780;2023-08-01T07:02:24;19.50;99.90
9984;DHT22;16737;50.932;6.780;2023-08-01T07:04:53;19.50;99.90
9984;DHT22;16737;50.932;6.780;2023-08-01T07:07:20;19.50;99.90
9984;DHT22;16737;50.932;6.780;2023-08-01T07:09:47;19.60;99.90
9984;DHT22;16737;50.932;6.780;2023-08-01T07:12:14;19.50;99.90
9984;DHT22;16737;50.932;6.780;2023-08-01T07:14:41;19.50;99.90
9984;DHT22;16737;50.932;6.780;2023-08-01T07:17:08;19.50;99.90
9984;DHT22;16737;50.932;6.780;2023-08-01T07:19:35;19.60;99.90
9984;DHT22;16737;50.932;6.780;2023-08-01T07:22:03;19.50;99.90
9984;DHT22;16737;50.932;6.780;2023-08-01T07:24:30;19.60;99.90
9984;DHT22;16737;50.932;6.780;2023-08-01T07:26:57;19.60;99.90
9984;DHT22;16737;50.932;6.780;2023-08-01T07:29:24;19.60;99.90
9984;DHT22;16737;50.932;6.780;2023-08-01T07:31:51;19.60;99.90
9984;DHT22;16737;50.932;6.780;2023-08-01T07:34:18;19.60;99.90
9984;DHT22;16737;50.932;6.780;2023-08-01T07:36:47;19.70;99.90
9984;DHT22;16737;50.932;6.780;2023-08-01T07:39:16;19.70;99.90
9984;DHT22;16737;50.932;6.780;2023-08-01T07:41:43;19.70;99.90
9984;DHT22;16737;50.932;6.780;2023-08-01T07:44:10;19.70;99.90
9984;DHT22;16737;50.932;6.780;2023-08-01T07:46:37;19.80;99.90
9984;DHT22;16737;50.932;6.780;2023-08-01T07:49:04;19.70;99.90
9984;DHT22;16737;50.932;6.780;2023-08-01T07:51:31;19.80;99.90
9984;DHT22;16737;50.932;6.780;2023-08-01T07:53:59;19.80;99.90
9984;DHT22;16737;50.932;6.780;2023-08-01T07:56:27;19.80;99.90
9984;DHT22;16737;50.932;6.780;2023-08-01T07:58:54;19.80;99.90
9984;DHT22;16737;50.932;6.780;2023-08-01T08:01:21;19.90;99.90
9984;DHT22;16737;50.932;6.780;2023-08-01T08:03:48;19.90;99.90
9984;DHT22;16737;50.932;6.780;2023-08-01T08:06:15;20.00;99.90
9984;DHT22;16737;50.932;6.780;2023-08-01T08:08:42;20.10;99.90
9984;DHT22;16737;50.932;6.780;2023-08-01T08:11:09;20.10;99.90
9984;DHT22;16737;50.932;6.780;2023-08-01T08:13:38;20.20;99.90
9984;DHT22;16737;50.932;6.780;2023-08-01T08:16:06;20.20;99.90
9984;DHT22;16737;50.932;6.780;2023-08-01T08:18:33;20.30;99.90
9984;DHT22;16737;50.932;6.780;2023-08-01T08:21:00;20.30;99.90
9984;DHT22;16737;50.932;6.780;2023-08-01T08:23:27;20.40;99.90
9984;DHT22;16737;50.932;6.780;2023-08-01T08:25:54;20.40;99.90
9984;DHT22;16737;50.932;6.780;2023-08-01T08:28:28;20.50;99.90
9984;DHT22;16737;50.932;6.780;2023-08-01T08:30:57;20.50;99.90
9984;DHT22;16737;50.932;6.780;2023-08-01T08:33:25;20.60;99.90
9984;DHT22;16737;50.932;6.780;2023-08-01T08:35:52;20.60;99.90
9984;DHT22;16737;50.932;6.780;2023-08-01T08:38:18;20.70;99.90
9984;DHT22;16737;50.932;6.780;2023-08-01T08:40:55;20.70;99.90
9984;DHT22;16737;50.932;6.780;2023-08-01T08:43:32;20.80;99.90
9984;DHT22;16737;50.932;6.780;2023-08-01T08:46:02;20.90;99.90
9984;DHT22;16737;50.932;6.780;2023-08-01T08:48:31;20.90;99.90
9984;DHT22;16737;50.932;6.780;2023-08-01T08:51:01;20.90;99.90
9984;DHT22;16737;50.932;6.780;2023-08-01T08:53:30;21.00;99.90
9984;DHT22;16737;50.932;6.780;2023-08-01T08:55:59;21.00;99.90
9984;DHT22;16737;50.932;6.780;2023-08-01T08:58:28;21.10;99.90
9984;DHT22;16737;50.932;6.780;2023-08-01T09:00:55;21.10;99.90
9984;DHT22;16737;50.932;6.780;2023-08-01T09:03:24;21.10;99.90
9984;DHT22;16737;50.932;6.780;2023-08-01T09:05:54;21.20;99.90
9984;DHT22;16737;50.932;6.780;2023-08-01T09:08:29;21.30;99.90
9984;DHT22;16737;50.932;6.780;2023-08-01T09:11:01;21.40;99.90
9984;DHT22;16737;50.932;6.780;2023-08-01T09:13:28;21.40;99.90
9984;DHT22;16737;50.932;6.780;2023-08-01T09:15:56;21.40;99.90
9984;DHT22;16737;50.932;6.780;2023-08-01T09:18:25;21.50;99.90
9984;DHT22;16737;50.932;6.780;2023-08-01T09:20:53;21.40;99.80
9984;DHT22;16737;50.932;6.780;2023-08-01T09:23:24;21.50;99.90
9984;DHT22;16737;50.932;6.780;2023-08-01T09:25:53;21.40;99.70
9984;DHT22;16737;50.932;6.780;2023-08-01T09:28:21;21.50;99.80
9984;DHT22;16737;50.932;6.780;2023-08-01T09:30:50;21.40;99.80
9984;DHT22;16737;50.932;6.780;2023-08-01T09:33:24;21.40;99.80
9984;DHT22;16737;50.932;6.780;2023-08-01T09:35:52;21.50;99.80
9984;DHT22;16737;50.932;6.780;2023-08-01T09:38:19;21.50;99.80
9984;DHT22;16737;50.932;6.780;2023-08-01T09:40:47;21.50;99.90
9984;DHT22;16737;50.932;6.780;2023-08-01T09:43:15;21.60;99.80
9984;DHT22;16737;50.932;6.780;2023-08-01T09:45:53;21.60;99.80
9984;DHT22;16737;50.932;6.780;2023-08-01T09:48:25;21.70;99.50
9984;DHT22;16737;50.932;6.780;2023-08-01T09:51:07;21.70;99.40
9984;DHT22;16737;50.932;6.780;2023-08-01T09:53:45;21.80;99.30
9984;DHT22;16737;50.932;6.780;2023-08-01T09:56:14;21.80;99.50
9984;DHT22;16737;50.932;6.780;2023-08-01T09:58:43;21.80;99.40
9984;DHT22;16737;50.932;6.780;2023-08-01T10:01:13;21.90;99.60
9984;DHT22;16737;50.932;6.780;2023-08-01T10:03:45;21.90;99.60
9984;DHT22;16737;50.932;6.780;2023-08-01T10:06:17;22.00;99.30
9984;DHT22;16737;50.932;6.780;2023-08-01T10:08:46;22.10;99.50
9984;DHT22;16737;50.932;6.780;2023-08-01T10:11:15;22.10;99.40
9984;DHT22;16737;50.932;6.780;2023-08-01T10:13:44;22.20;99.20
9984;DHT22;16737;50.932;6.780;2023-08-01T10:16:12;22.20;99.10
9984;DHT22;16737;50.932;6.780;2023-08-01T10:18:39;22.30;99.10
9984;DHT22;16737;50.932;6.780;2023-08-01T10:21:11;22.30;99.10
9984;DHT22;16737;50.932;6.780;2023-08-01T10:23:43;22.40;98.70
9984;DHT22;16737;50.932;6.780;2023-08-01T10:26:11;22.40;98.80
9984;DHT22;16737;50.932;6.780;2023-08-01T10:28:50;22.40;98.70
9984;DHT22;16737;50.932;6.780;2023-08-01T10:31:19;22.40;98.50
9984;DHT22;16737;50.932;6.780;2023-08-01T10:33:49;22.40;98.70
9984;DHT22;16737;50.932;6.780;2023-08-01T10:36:18;22.50;98.70
9984;DHT22;16737;50.932;6.780;2023-08-01T10:38:48;22.50;99.10
9984;DHT22;16737;50.932;6.780;2023-08-01T10:41:20;22.60;98.60
9984;DHT22;16737;50.932;6.780;2023-08-01T10:43:48;22.60;98.20
9984;DHT22;16737;50.932;6.780;2023-08-01T10:46:15;22.70;98.40
9984;DHT22;16737;50.932;6.780;2023-08-01T10:48:51;22.80;98.50
9984;DHT22;16737;50.932;6.780;2023-08-01T10:51:19;22.90;97.80
9984;DHT22;16737;50.932;6.780;2023-08-01T10:53:46;22.90;98.10
9984;DHT22;16737;50.932;6.780;2023-08-01T10:56:17;23.00;98.10
9984;DHT22;16737;50.932;6.780;2023-08-01T10:58:46;23.10;98.00
9984;DHT22;16737;50.932;6.780;2023-08-01T11:01:13;23.20;98.10
9984;DHT22;16737;50.932;6.780;2023-08-01T11:03:40;23.20;97.90
9984;DHT22;16737;50.932;6.780;2023-08-01T11:06:09;23.30;97.80
9984;DHT22;16737;50.932;6.780;2023-08-01T11:08:38;23.40;97.60
9984;DHT22;16737;50.932;6.780;2023-08-01T11:11:08;23.50;97.50
9984;DHT22;16737;50.932;6.780;2023-08-01T11:13:38;23.60;97.30
9984;DHT22;16737;50.932;6.780;2023-08-01T11:16:05;23.70;97.20
9984;DHT22;16737;50.932;6.780;2023-08-01T11:18:41;23.70;97.00
9984;DHT22;16737;50.932;6.780;2023-08-01T11:21:10;23.80;96.50
9984;DHT22;16737;50.932;6.780;2023-08-01T11:23:37;23.80;96.80
9984;DHT22;16737;50.932;6.780;2023-08-01T11:26:06;23.90;96.90
9984;DHT22;16737;50.932;6.780;2023-08-01T11:28:38;24.00;96.40
9984;DHT22;16737;50.932;6.780;2023-08-01T11:31:10;24.00;96.00
9984;DHT22;16737;50.932;6.780;2023-08-01T11:33:41;24.10;95.90
9984;DHT22;16737;50.932;6.780;2023-08-01T11:36:10;24.10;96.20
9984;DHT22;16737;50.932;6.780;2023-08-01T11:38:38;24.20;96.00
9984;DHT22;16737;50.932;6.780;2023-08-01T11:41:08;24.20;95.80
9984;DHT22;16737;50.932;6.780;2023-08-01T11:43:38;24.30;96.20
9984;DHT22;16737;50.932;6.780;2023-08-01T11:46:06;24.40;95.70
9984;DHT22;16737;50.932;6.780;2023-08-01T11:48:33;24.50;95.60
9984;DHT22;16737;50.932;6.780;2023-08-01T11:51:02;24.40;95.50
9984;DHT22;16737;50.932;6.780;2023-08-01T11:53:31;24.40;95.30
9984;DHT22;16737;50.932;6.780;2023-08-01T11:56:04;24.50;95.30
9984;DHT22;16737;50.932;6.780;2023-08-01T11:58:32;24.40;95.30
9984;DHT22;16737;50.932;6.780;2023-08-01T12:01:04;24.40;95.20
9984;DHT22;16737;50.932;6.780;2023-08-01T12:03:42;24.40;95.20
9984;DHT22;16737;50.932;6.780;2023-08-01T12:06:10;24.40;94.70
9984;DHT22;16737;50.932;6.780;2023-08-01T12:08:41;24.40;95.10
9984;DHT22;16737;50.932;6.780;2023-08-01T12:11:18;24.40;94.80
9984;DHT22;16737;50.932;6.780;2023-08-01T12:13:46;24.50;94.30
9984;DHT22;16737;50.932;6.780;2023-08-01T12:16:14;24.50;94.80
9984;DHT22;16737;50.932;6.780;2023-08-01T12:18:45;24.50;94.90
9984;DHT22;16737;50.932;6.780;2023-08-01T12:21:13;24.50;94.70
9984;DHT22;16737;50.932;6.780;2023-08-01T12:23:41;24.50;94.70
9984;DHT22;16737;50.932;6.780;2023-08-01T12:26:09;24.50;94.40
9984;DHT22;16737;50.932;6.780;2023-08-01T12:28:36;24.50;94.30
9984;DHT22;16737;50.932;6.780;2023-08-01T12:31:03;24.50;94.60
9984;DHT22;16737;50.932;6.780;2023-08-01T12:33:30;24.40;94.60
9984;DHT22;16737;50.932;6.780;2023-08-01T12:35:59;24.30;94.50
9984;DHT22;16737;50.932;6.780;2023-08-01T12:38:26;24.20;94.60
9984;DHT22;16737;50.932;6.780;2023-08-01T12:40:55;24.00;94.70
9984;DHT22;16737;50.932;6.780;2023-08-01T12:43:22;23.80;94.80
9984;DHT22;16737;50.932;6.780;2023-08-01T12:45:48;23.60;94.80
9984;DHT22;16737;50.932;6.780;2023-08-01T12:48:15;23.40;95.00
9984;DHT22;16737;50.932;6.780;2023-08-01T12:50:45;23.30;95.20
9984;DHT22;16737;50.932;6.780;2023-08-01T12:53:13;23.20;95.30
9984;DHT22;16737;50.932;6.780;2023-08-01T12:55:42;23.00;95.30
9984;DHT22;16737;50.932;6.780;2023-08-01T12:58:11;22.90;95.50
9984;DHT22;16737;50.932;6.780;2023-08-01T13:00:39;22.90;95.80
9984;DHT22;16737;50.932;6.780;2023-08-01T13:03:07;22.80;95.80
9984;DHT22;16737;50.932;6.780;2023-08-01T13:05:34;22.80;95.70
9984;DHT22;16737;50.932;6.780;2023-08-01T13:08:02;22.70;95.90
9984;DHT22;16737;50.932;6.780;2023-08-01T13:10:30;22.60;96.20
9984;DHT22;16737;50.932;6.780;2023-08-01T13:12:57;22.60;95.90
9984;DHT22;16737;50.932;6.780;2023-08-01T13:15:26;22.60;96.00
9984;DHT22;16737;50.932;6.780;2023-08-01T13:17:54;22.60;96.00
9984;DHT22;16737;50.932;6.780;2023-08-01T13:20:21;22.60;96.10
9984;DHT22;16737;50.932;6.780;2023-08-01T13:22:51;22.70;96.00
9984;DHT22;16737;50.932;6.780;2023-08-01T13:25:19;22.70;96.00
9984;DHT22;16737;50.932;6.780;2023-08-01T13:27:45;22.70;96.00
9984;DHT22;16737;50.932;6.780;2023-08-01T13:30:12;22.80;96.10
9984;DHT22;16737;50.932;6.780;2023-08-01T13:32:44;22.80;96.10
9984;DHT22;16737;50.932;6.780;2023-08-01T13:35:12;22.80;95.90
9984;DHT22;16737;50.932;6.780;2023-08-01T13:37:39;22.90;96.10
9984;DHT22;16737;50.932;6.780;2023-08-01T13:40:07;22.90;96.10
9984;DHT22;16737;50.932;6.780;2023-08-01T13:42:37;22.90;95.90
9984;DHT22;16737;50.932;6.780;2023-08-01T13:45:05;23.00;95.90
9984;DHT22;16737;50.932;6.780;2023-08-01T13:47:32;23.00;95.70
9984;DHT22;16737;50.932;6.780;2023-08-01T13:50:01;23.10;95.60
9984;DHT22;16737;50.932;6.780;2023-08-01T13:52:28;23.10;95.50
9984;DHT22;16737;50.932;6.780;2023-08-01T13:54:55;23.20;95.50
9984;DHT22;16737;50.932;6.780;2023-08-01T13:57:22;23.10;95.40
9984;DHT22;16737;50.932;6.780;2023-08-01T13:59:50;23.10;95.20
9984;DHT22;16737;50.932;6.780;2023-08-01T14:02:17;23.20;95.10
9984;DHT22;16737;50.932;6.780;2023-08-01T14:04:43;23.10;95.00
9984;DHT22;16737;50.932;6.780;2023-08-01T14:07:12;23.10;94.70
9984;DHT22;16737;50.932;6.780;2023-08-01T14:09:41;23.10;94.60
9984;DHT22;16737;50.932;6.780;2023-08-01T14:12:08;23.00;94.80
9984;DHT22;16737;50.932;6.780;2023-08-01T14:14:35;23.00;94.80
9984;DHT22;16737;50.932;6.780;2023-08-01T14:17:02;22.90;94.70
9984;DHT22;16737;50.932;6.780;2023-08-01T14:19:29;22.90;94.80
9984;DHT22;16737;50.932;6.780;2023-08-01T14:21:57;22.70;94.70
9984;DHT22;16737;50.932;6.780;2023-08-01T14:24:25;22.60;94.80
9984;DHT22;16737;50.932;6.780;2023-08-01T14:26:52;22.50;94.70
9984;DHT22;16737;50.932;6.780;2023-08-01T14:29:19;22.40;94.80
9984;DHT22;16737;50.932;6.780;2023-08-01T14:31:48;22.40;95.00
9984;DHT22;16737;50.932;6.780;2023-08-01T14:34:16;22.30;95.10
9984;DHT22;16737;50.932;6.780;2023-08-01T14:36:43;22.20;95.10
9984;DHT22;16737;50.932;6.780;2023-08-01T14:39:10;22.20;95.30
9984;DHT22;16737;50.932;6.780;2023-08-01T14:41:38;22.20;95.30
9984;DHT22;16737;50.932;6.780;2023-08-01T14:44:05;22.20;95.30
9984;DHT22;16737;50.932;6.780;2023-08-01T14:46:32;22.10;95.20
9984;DHT22;16737;50.932;6.780;2023-08-01T14:49:02;22.20;95.20
9984;DHT22;16737;50.932;6.780;2023-08-01T14:51:28;22.10;95.10
9984;DHT22;16737;50.932;6.780;2023-08-01T14:53:55;22.20;95.20
9984;DHT22;16737;50.932;6.780;2023-08-01T14:56:22;22.10;95.20
9984;DHT22;16737;50.932;6.780;2023-08-01T14:58:51;22.20;95.20
9984;DHT22;16737;50.932;6.780;2023-08-01T15:01:18;22.20;95.00
9984;DHT22;16737;50.932;6.780;2023-08-01T15:03:45;22.20;95.10
9984;DHT22;16737;50.932;6.780;2023-08-01T15:06:12;22.20;95.10
9984;DHT22;16737;50.932;6.780;2023-08-01T15:08:40;22.20;95.10
9984;DHT22;16737;50.932;6.780;2023-08-01T15:11:08;22.20;94.90
9984;DHT22;16737;50.932;6.780;2023-08-01T15:13:36;22.20;94.80
9984;DHT22;16737;50.932;6.780;2023-08-01T15:16:08;22.20;94.70
9984;DHT22;16737;50.932;6.780;2023-08-01T15:18:35;22.20;94.50
9984;DHT22;16737;50.932;6.780;2023-08-01T15:21:02;22.20;94.50
9984;DHT22;16737;50.932;6.780;2023-08-01T15:23:29;22.20;94.40
9984;DHT22;16737;50.932;6.780;2023-08-01T15:25:57;22.20;94.40
9984;DHT22;16737;50.932;6.780;2023-08-01T15:28:26;22.20;94.40
9984;DHT22;16737;50.932;6.780;2023-08-01T15:31:01;22.20;94.40
9984;DHT22;16737;50.932;6.780;2023-08-01T15:33:32;22.20;94.20
9984;DHT22;16737;50.932;6.780;2023-08-01T15:36:01;22.20;94.30
9984;DHT22;16737;50.932;6.780;2023-08-01T15:38:30;22.20;94.30
9984;DHT22;16737;50.932;6.780;2023-08-01T15:40:58;22.20;94.30
9984;DHT22;16737;50.932;6.780;2023-08-01T15:43:28;22.20;94.20
9984;DHT22;16737;50.932;6.780;2023-08-01T15:45:56;22.20;94.20
9984;DHT22;16737;50.932;6.780;2023-08-01T15:48:24;22.20;94.20
9984;DHT22;16737;50.932;6.780;2023-08-01T15:50:51;22.20;94.20